sensor_id;sensor_type;location;lat;lon;timestamp;P1;durP1;ratioP1;P2;durP2;ratioP2
65597;SDS011;52267;51.984;20.956;2023-07-02T00:00:01;24.90;;;17.50;;
65597;SDS011;52267;51.984;20.956;2023-07-02T00:02:31;23.10;;;16.20;;
65597;SDS011;52267;51.984;20.956;2023-07-02T00:04:58;27.30;;;17.50;;
65597;SDS011;52267;51.984;20.956;2023-07-02T00:07:25;23.80;;;17.10;;
65597;SDS011;52267;51.984;20.956;2023-07-02T00:09:52;25.60;;;16.30;;
65597;SDS011;52267;51.984;20.956;2023-07-02T00:12:19;23.90;;;16.00;;
65597;SDS011;52267;51.984;20.956;2023-07-02T00:14:47;25.40;;;16.90;;
65597;SDS011;52267;51.984;20.956;2023-07-02T00:17:13;23.60;;;15.80;;
65597;SDS011;52267;51.984;20.956;2023-07-02T00:19:40;25.50;;;17.20;;
65597;SDS011;52267;51.984;20.956;2023-07-02T00:22:09;25.90;;;17.30;;
65597;SDS011;52267;51.984;20.956;2023-07-02T00:24:36;24.40;;;16.50;;
65597;SDS011;52267;51.984;20.956;2023-07-02T00:27:04;24.20;;;16.30;;
65597;SDS011;52267;51.984;20.956;2023-07-02T00:29:31;25.80;;;17.50;;
65597;SDS011;52267;51.984;20.956;2023-07-02T00:31:58;25.30;;;18.10;;
65597;SDS011;52267;51.984;20.956;2023-07-02T00:34:25;23.90;;;16.10;;
65597;SDS011;52267;51.984;20.956;2023-07-02T00:36:53;24.50;;;16.20;;
65597;SDS011;52267;51.984;20.956;2023-07-02T00:39:20;22.60;;;16.10;;
65597;SDS011;52267;51.984;20.956;2023-07-02T00:41:49;24.80;;;15.50;;
65597;SDS011;52267;51.984;20.956;2023-07-02T00:44:16;26.60;;;17.50;;
65597;SDS011;52267;51.984;20.956;2023-07-02T00:46:43;25.00;;;16.20;;
65597;SDS011;52267;51.984;20.956;2023-07-02T00:49:11;24.00;;;16.90;;
65597;SDS011;52267;51.984;20.956;2023-07-02T00:51:38;23.60;;;14.60;;
65597;SDS011;52267;51.984;20.956;2023-07-02T00:54:05;25.90;;;16.60;;
65597;SDS011;52267;51.984;20.956;2023-07-02T00:56:32;24.70;;;16.40;;
65597;SDS011;52267;51.984;20.956;2023-07-02T00:59:00;25.70;;;16.60;;
65597;SDS011;52267;51.984;20.956;2023-07-02T01:01:27;26.90;;;17.20;;
65597;SDS011;52267;51.984;20.956;2023-07-02T01:03:59;27.60;;;17.40;;
65597;SDS011;52267;51.984;20.956;2023-07-02T01:06:37;24.30;;;16.90;;
65597;SDS011;52267;51.984;20.956;2023-07-02T01:09:07;24.30;;;17.00;;
65597;SDS011;52267;51.984;20.956;2023-07-02T01:11:38;24.60;;;16.20;;
65597;SDS011;52267;51.984;20.956;2023-07-02T01:14:22;23.20;;;15.90;;
65597;SDS011;52267;51.984;20.956;2023-07-02T01:16:53;23.20;;;16.80;;
65597;SDS011;52267;51.984;20.956;2023-07-02T01:22:23;23.50;;;17.00;;
65597;SDS011;52267;51.984;20.956;2023-07-02T01:24:54;26.20;;;17.40;;
65597;SDS011;52267;51.984;20.956;2023-07-02T01:27:27;25.60;;;17.60;;
65597;SDS011;52267;51.984;20.956;2023-07-02T01:32:22;25.00;;;17.10;;
65597;SDS011;52267;51.984;20.956;2023-07-02T01:34:50;26.20;;;18.20;;
65597;SDS011;52267;51.984;20.956;2023-07-02T01:37:19;25.80;;;17.50;;
65597;SDS011;52267;51.984;20.956;2023-07-02T01:39:46;25.80;;;17.50;;
65597;SDS011;52267;51.984;20.956;2023-07-02T01:42:16;30.70;;;18.10;;
65597;SDS011;52267;51.984;20.956;2023-07-02T01:44:45;28.50;;;17.80;;
65597;SDS011;52267;51.984;20.956;2023-07-02T01:47:13;26.50;;;18.20;;
65597;SDS011;52267;51.984;20.956;2023-07-02T01:49:42;26.60;;;17.80;;
65597;SDS011;52267;51.984;20.956;2023-07-02T01:52:09;28.30;;;17.70;;
65597;SDS011;52267;51.984;20.956;2023-07-02T01:54:36;25.50;;;18.00;;
65597;SDS011;52267;51.984;20.956;2023-07-02T01:57:03;26.00;;;17.90;;
65597;SDS011;52267;51.984;20.956;2023-07-02T01:59:31;26.60;;;18.50;;
65597;SDS011;52267;51.984;20.956;2023-07-02T02:01:58;27.20;;;18.10;;
65597;SDS011;52267;51.984;20.956;2023-07-02T02:04:25;23.10;;;17.40;;
65597;SDS011;52267;51.984;20.956;2023-07-02T02:06:52;26.20;;;17.50;;
65597;SDS011;52267;51.984;20.956;2023-07-02T02:09:20;25.60;;;18.10;;
65597;SDS011;52267;51.984;20.956;2023-07-02T02:11:49;26.00;;;18.10;;
65597;SDS011;52267;51.984;20.956;2023-07-02T02:14:16;27.00;;;18.20;;
65597;SDS011;52267;51.984;20.956;2023-07-02T02:16:44;27.50;;;19.00;;
65597;SDS011;52267;51.984;20.956;2023-07-02T02:19:14;27.70;;;18.50;;
65597;SDS011;52267;51.984;20.956;2023-07-02T02:21:42;28.90;;;19.60;;
65597;SDS011;52267;51.984;20.956;2023-07-02T02:24:09;29.50;;;19.60;;
65597;SDS011;52267;51.984;20.956;2023-07-02T02:26:37;26.80;;;18.70;;
65597;SDS011;52267;51.984;20.956;2023-07-02T02:29:04;29.20;;;18.80;;
65597;SDS011;52267;51.984;20.956;2023-07-02T02:31:31;26.80;;;18.00;;
65597;SDS011;52267;51.984;20.956;2023-07-02T02:33:59;29.70;;;19.50;;
65597;SDS011;52267;51.984;20.956;2023-07-02T02:36:26;28.70;;;19.90;;
65597;SDS011;52267;51.984;20.956;2023-07-02T02:38:52;31.60;;;19.20;;
65597;SDS011;52267;51.984;20.956;2023-07-02T02:41:19;30.00;;;19.90;;
65597;SDS011;52267;51.984;20.956;2023-07-02T02:43:46;30.10;;;19.30;;
65597;SDS011;52267;51.984;20.956;2023-07-02T02:46:19;26.60;;;18.50;;
65597;SDS011;52267;51.984;20.956;2023-07-02T02:48:49;27.40;;;18.90;;
65597;SDS011;52267;51.984;20.956;2023-07-02T02:51:16;28.10;;;19.20;;
65597;SDS011;52267;51.984;20.956;2023-07-02T02:53:43;30.90;;;19.70;;
65597;SDS011;52267;51.984;20.956;2023-07-02T02:56:10;28.50;;;19.00;;
65597;SDS011;52267;51.984;20.956;2023-07-02T02:58:37;27.70;;;18.50;;
65597;SDS011;52267;51.984;20.956;2023-07-02T03:01:04;24.50;;;17.50;;
65597;SDS011;52267;51.984;20.956;2023-07-02T03:03:40;25.20;;;17.40;;
65597;SDS011;52267;51.984;20.956;2023-07-02T03:06:15;22.70;;;15.50;;
65597;SDS011;52267;51.984;20.956;2023-07-02T03:08:42;25.50;;;17.60;;
65597;SDS011;52267;51.984;20.956;2023-07-02T03:11:09;24.80;;;17.60;;
65597;SDS011;52267;51.984;20.956;2023-07-02T03:13:36;24.40;;;16.50;;
65597;SDS011;52267;51.984;20.956;2023-07-02T03:16:03;23.80;;;16.10;;
65597;SDS011;52267;51.984;20.956;2023-07-02T03:18:31;24.90;;;16.40;;
65597;SDS011;52267;51.984;20.956;2023-07-02T03:20:59;23.70;;;16.10;;
65597;SDS011;52267;51.984;20.956;2023-07-02T03:23:26;25.20;;;17.50;;
65597;SDS011;52267;51.984;20.956;2023-07-02T03:25:53;20.70;;;14.50;;
65597;SDS011;52267;51.984;20.956;2023-07-02T03:28:20;20.70;;;15.10;;
65597;SDS011;52267;51.984;20.956;2023-07-02T03:30:47;22.10;;;14.40;;
65597;SDS011;52267;51.984;20.956;2023-07-02T03:33:14;22.10;;;16.10;;
65597;SDS011;52267;51.984;20.956;2023-07-02T03:35:41;25.00;;;16.60;;
65597;SDS011;52267;51.984;20.956;2023-07-02T03:38:08;20.90;;;14.80;;
65597;SDS011;52267;51.984;20.956;2023-07-02T03:40:35;22.30;;;15.60;;
65597;SDS011;52267;51.984;20.956;2023-07-02T03:43:02;23.20;;;15.70;;
65597;SDS011;52267;51.984;20.956;2023-07-02T03:45:29;23.30;;;15.70;;
65597;SDS011;52267;51.984;20.956;2023-07-02T03:47:56;23.10;;;14.60;;
65597;SDS011;52267;51.984;20.956;2023-07-02T03:50:23;18.90;;;13.10;;
65597;SDS011;52267;51.984;20.956;2023-07-02T03:52:50;24.20;;;14.50;;
65597;SDS011;52267;51.984;20.956;2023-07-02T03:55:19;19.90;;;14.00;;
65597;SDS011;52267;51.984;20.956;2023-07-02T03:57:47;20.70;;;13.50;;
65597;SDS011;52267;51.984;20.956;2023-07-02T04:00:14;18.90;;;13.30;;
65597;SDS011;52267;51.984;20.956;2023-07-02T04:02:41;20.30;;;14.80;;
65597;SDS011;52267;51.984;20.956;2023-07-02T04:05:08;22.00;;;14.10;;
65597;SDS011;52267;51.984;20.956;2023-07-02T04:07:35;20.50;;;14.60;;
65597;SDS011;52267;51.984;20.956;2023-07-02T04:10:02;22.60;;;14.10;;
65597;SDS011;52267;51.984;20.956;2023-07-02T04:12:30;20.50;;;13.60;;
65597;SDS011;52267;51.984;20.956;2023-07-02T04:14:57;19.60;;;13.90;;
65597;SDS011;52267;51.984;20.956;2023-07-02T04:17:24;20.10;;;14.10;;
65597;SDS011;52267;51.984;20.956;2023-07-02T04:19:54;19.30;;;13.60;;
65597;SDS011;52267;51.984;20.956;2023-07-02T04:22:21;16.80;;;11.00;;
65597;SDS011;52267;51.984;20.956;2023-07-02T04:24:49;18.90;;;12.60;;
65597;SDS011;52267;51.984;20.956;2023-07-02T04:27:16;17.00;;;12.30;;
65597;SDS011;52267;51.984;20.956;2023-07-02T04:29:44;18.90;;;13.00;;
65597;SDS011;52267;51.984;20.956;2023-07-02T04:32:11;19.00;;;12.90;;
65597;SDS011;52267;51.984;20.956;2023-07-02T04:34:38;16.60;;;11.70;;
65597;SDS011;52267;51.984;20.956;2023-07-02T04:37:05;18.60;;;13.20;;
65597;SDS011;52267;51.984;20.956;2023-07-02T04:39:32;16.90;;;12.00;;
65597;SDS011;52267;51.984;20.956;2023-07-02T04:42:00;15.70;;;11.60;;
65597;SDS011;52267;51.984;20.956;2023-07-02T04:44:27;16.20;;;11.60;;
65597;SDS011;52267;51.984;20.956;2023-07-02T04:47:01;15.90;;;10.90;;
65597;SDS011;52267;51.984;20.956;2023-07-02T04:49:28;15.30;;;10.60;;
65597;SDS011;52267;51.984;20.956;2023-07-02T04:51:55;14.80;;;11.30;;
65597;SDS011;52267;51.984;20.956;2023-07-02T04:54:22;14.00;;;10.40;;
65597;SDS011;52267;51.984;20.956;2023-07-02T04:56:49;14.60;;;10.40;;
65597;SDS011;52267;51.984;20.956;2023-07-02T04:59:17;15.50;;;10.90;;
65597;SDS011;52267;51.984;20.956;2023-07-02T05:01:44;19.30;;;12.30;;
65597;SDS011;52267;51.984;20.956;2023-07-02T05:04:11;14.60;;;11.30;;
65597;SDS011;52267;51.984;20.956;2023-07-02T05:06:38;16.40;;;10.20;;
65597;SDS011;52267;51.984;20.956;2023-07-02T05:09:05;18.80;;;11.20;;
65597;SDS011;52267;51.984;20.956;2023-07-02T05:11:32;15.70;;;11.30;;
65597;SDS011;52267;51.984;20.956;2023-07-02T05:13:59;15.30;;;11.40;;
65597;SDS011;52267;51.984;20.956;2023-07-02T05:16:26;15.70;;;11.80;;
65597;SDS011;52267;51.984;20.956;2023-07-02T05:18:53;14.80;;;10.10;;
65597;SDS011;52267;51.984;20.956;2023-07-02T05:21:20;16.40;;;10.10;;
65597;SDS011;52267;51.984;20.956;2023-07-02T05:23:47;15.30;;;10.90;;
65597;SDS011;52267;51.984;20.956;2023-07-02T05:26:15;12.20;;;9.20;;
65597;SDS011;52267;51.984;20.956;2023-07-02T05:28:42;12.60;;;9.80;;
65597;SDS011;52267;51.984;20.956;2023-07-02T05:31:10;13.80;;;10.50;;
65597;SDS011;52267;51.984;20.956;2023-07-02T05:33:38;16.10;;;10.00;;
65597;SDS011;52267;51.984;20.956;2023-07-02T05:36:05;14.00;;;10.10;;
65597;SDS011;52267;51.984;20.956;2023-07-02T05:38:32;16.30;;;10.40;;
65597;SDS011;52267;51.984;20.956;2023-07-02T05:40:59;14.20;;;10.90;;
65597;SDS011;52267;51.984;20.956;2023-07-02T05:43:26;13.60;;;10.10;;
65597;SDS011;52267;51.984;20.956;2023-07-02T05:45:53;12.50;;;8.90;;
65597;SDS011;52267;51.984;20.956;2023-07-02T05:48:20;12.70;;;10.40;;
65597;SDS011;52267;51.984;20.956;2023-07-02T05:50:47;13.80;;;10.20;;
65597;SDS011;52267;51.984;20.956;2023-07-02T05:53:14;14.20;;;10.20;;
65597;SDS011;52267;51.984;20.956;2023-07-02T05:55:42;16.90;;;11.10;;
65597;SDS011;52267;51.984;20.956;2023-07-02T05:58:10;14.10;;;9.70;;
65597;SDS011;52267;51.984;20.956;2023-07-02T06:00:37;13.40;;;10.10;;
65597;SDS011;52267;51.984;20.956;2023-07-02T06:03:05;13.90;;;9.30;;
65597;SDS011;52267;51.984;20.956;2023-07-02T06:05:32;13.50;;;8.60;;
65597;SDS011;52267;51.984;20.956;2023-07-02T06:07:59;14.30;;;10.70;;
65597;SDS011;52267;51.984;20.956;2023-07-02T06:10:26;13.70;;;9.40;;
65597;SDS011;52267;51.984;20.956;2023-07-02T06:12:53;14.90;;;10.60;;
65597;SDS011;52267;51.984;20.956;2023-07-02T06:15:20;17.00;;;11.40;;
65597;SDS011;52267;51.984;20.956;2023-07-02T06:17:48;12.10;;;9.10;;
65597;SDS011;52267;51.984;20.956;2023-07-02T06:20:15;12.00;;;8.40;;
65597;SDS011;52267;51.984;20.956;2023-07-02T06:22:42;11.70;;;8.30;;
65597;SDS011;52267;51.984;20.956;2023-07-02T06:25:09;14.40;;;10.50;;
65597;SDS011;52267;51.984;20.956;2023-07-02T06:27:36;13.90;;;10.40;;
65597;SDS011;52267;51.984;20.956;2023-07-02T06:30:04;14.00;;;8.90;;
65597;SDS011;52267;51.984;20.956;2023-07-02T06:32:32;13.60;;;8.90;;
65597;SDS011;52267;51.984;20.956;2023-07-02T06:34:59;12.80;;;10.10;;
65597;SDS011;52267;51.984;20.956;2023-07-02T06:37:26;13.80;;;9.10;;
65597;SDS011;52267;51.984;20.956;2023-07-02T06:39:53;12.50;;;10.20;;
65597;SDS011;52267;51.984;20.956;2023-07-02T06:42:20;15.00;;;9.40;;
65597;SDS011;52267;51.984;20.956;2023-07-02T06:44:47;12.40;;;8.10;;
65597;SDS011;52267;51.984;20.956;2023-07-02T06:47:14;11.50;;;8.30;;
65597;SDS011;52267;51.984;20.956;2023-07-02T06:49:41;13.20;;;9.50;;
65597;SDS011;52267;51.984;20.956;2023-07-02T06:52:08;12.30;;;8.40;;
65597;SDS011;52267;51.984;20.956;2023-07-02T06:54:35;14.60;;;9.40;;
65597;SDS011;52267;51.984;20.956;2023-07-02T06:57:03;14.10;;;7.90;;
65597;SDS011;52267;51.984;20.956;2023-07-02T06:59:30;12.00;;;7.70;;
65597;SDS011;52267;51.984;20.956;2023-07-02T07:01:57;12.30;;;8.60;;
65597;SDS011;52267;51.984;20.956;2023-07-02T07:04:24;12.10;;;7.90;;
65597;SDS011;52267;51.984;20.956;2023-07-02T07:06:51;13.00;;;7.30;;
65597;SDS011;52267;51.984;20.956;2023-07-02T07:09:19;9.90;;;7.00;;
65597;SDS011;52267;51.984;20.956;2023-07-02T07:11:46;10.60;;;7.40;;
65597;SDS011;52267;51.984;20.956;2023-07-02T07:14:13;10.80;;;8.10;;
65597;SDS011;52267;51.984;20.956;2023-07-02T07:16:41;9.60;;;6.90;;
65597;SDS011;52267;51.984;20.956;2023-07-02T07:19:07;8.70;;;6.40;;
65597;SDS011;52267;51.984;20.956;2023-07-02T07:21:35;7.10;;;5.80;;
65597;SDS011;52267;51.984;20.956;2023-07-02T07:24:09;11.80;;;6.70;;
65597;SDS011;52267;51.984;20.956;2023-07-02T07:26:36;10.10;;;6.80;;
65597;SDS011;52267;51.984;20.956;2023-07-02T07:29:04;9.10;;;6.70;;
65597;SDS011;52267;51.984;20.956;2023-07-02T07:31:31;9.10;;;6.90;;
65597;SDS011;52267;51.984;20.956;2023-07-02T07:33:58;9.10;;;6.80;;
65597;SDS011;52267;51.984;20.956;2023-07-02T07:36:25;10.30;;;6.70;;
65597;SDS011;52267;51.984;20.956;2023-07-02T07:38:52;9.50;;;6.90;;
65597;SDS011;52267;51.984;20.956;2023-07-02T07:41:19;9.80;;;6.80;;
65597;SDS011;52267;51.984;20.956;2023-07-02T07:43:46;10.90;;;6.30;;
65597;SDS011;52267;51.984;20.956;2023-07-02T07:46:13;8.70;;;6.40;;
65597;SDS011;52267;51.984;20.956;2023-07-02T07:48:40;9.00;;;6.50;;
65597;SDS011;52267;51.984;20.956;2023-07-02T07:51:07;10.00;;;6.50;;
65597;SDS011;52267;51.984;20.956;2023-07-02T07:53:37;8.60;;;6.00;;
65597;SDS011;52267;51.984;20.956;2023-07-02T07:56:08;8.80;;;6.60;;
65597;SDS011;52267;51.984;20.956;2023-07-02T07:58:35;9.00;;;6.00;;
65597;SDS011;52267;51.984;20.956;2023-07-02T08:01:02;6.50;;;4.80;;
65597;SDS011;52267;51.984;20.956;2023-07-02T08:03:29;10.20;;;5.50;;
65597;SDS011;52267;51.984;20.956;2023-07-02T08:05:56;8.10;;;4.70;;
65597;SDS011;52267;51.984;20.956;2023-07-02T08:08:23;8.50;;;5.10;;
65597;SDS011;52267;51.984;20.956;2023-07-02T08:10:50;8.10;;;5.00;;
65597;SDS011;52267;51.984;20.956;2023-07-02T08:13:17;8.30;;;5.80;;
65597;SDS011;52267;51.984;20.956;2023-07-02T08:15:44;7.30;;;5.70;;
65597;SDS011;52267;51.984;20.956;2023-07-02T08:18:13;10.20;;;6.20;;
65597;SDS011;52267;51.984;20.956;2023-07-02T08:20:40;12.10;;;5.70;;
65597;SDS011;52267;51.984;20.956;2023-07-02T08:23:07;7.80;;;5.40;;
65597;SDS011;52267;51.984;20.956;2023-07-02T08:25:34;9.50;;;6.90;;
65597;SDS011;52267;51.984;20.956;2023-07-02T08:28:01;7.40;;;5.70;;
65597;SDS011;52267;51.984;20.956;2023-07-02T08:30:28;8.30;;;5.60;;
65597;SDS011;52267;51.984;20.956;2023-07-02T08:32:55;6.00;;;4.30;;
65597;SDS011;52267;51.984;20.956;2023-07-02T08:35:22;8.60;;;6.20;;
65597;SDS011;52267;51.984;20.956;2023-07-02T08:37:49;7.80;;;5.20;;
65597;SDS011;52267;51.984;20.956;2023-07-02T08:40:18;7.90;;;5.10;;
65597;SDS011;52267;51.984;20.956;2023-07-02T08:42:46;7.80;;;5.10;;
65597;SDS011;52267;51.984;20.956;2023-07-02T08:45:17;9.20;;;5.70;;
65597;SDS011;52267;51.984;20.956;2023-07-02T08:47:45;9.70;;;5.30;;
65597;SDS011;52267;51.984;20.956;2023-07-02T08:50:13;6.30;;;4.60;;
65597;SDS011;52267;51.984;20.956;2023-07-02T08:52:40;7.10;;;5.30;;
65597;SDS011;52267;51.984;20.956;2023-07-02T08:55:09;9.20;;;5.00;;
65597;SDS011;52267;51.984;20.956;2023-07-02T08:57:36;9.40;;;4.90;;
65597;SDS011;52267;51.984;20.956;2023-07-02T09:00:10;6.30;;;4.80;;
65597;SDS011;52267;51.984;20.956;2023-07-02T09:02:39;9.10;;;4.70;;
65597;SDS011;52267;51.984;20.956;2023-07-02T09:05:06;6.00;;;4.30;;
65597;SDS011;52267;51.984;20.956;2023-07-02T09:07:46;6.00;;;4.40;;
65597;SDS011;52267;51.984;20.956;2023-07-02T09:10:27;5.90;;;4.30;;
65597;SDS011;52267;51.984;20.956;2023-07-02T09:13:05;6.90;;;4.10;;
65597;SDS011;52267;51.984;20.956;2023-07-02T09:15:40;7.20;;;4.40;;
65597;SDS011;52267;51.984;20.956;2023-07-02T09:18:34;7.10;;;4.50;;
65597;SDS011;52267;51.984;20.956;2023-07-02T09:21:01;6.80;;;4.20;;
65597;SDS011;52267;51.984;20.956;2023-07-02T09:23:35;6.80;;;4.60;;
65597;SDS011;52267;51.984;20.956;2023-07-02T09:26:02;6.70;;;4.50;;
65597;SDS011;52267;51.984;20.956;2023-07-02T09:28:29;5.40;;;4.10;;
65597;SDS011;52267;51.984;20.956;2023-07-02T09:30:58;5.80;;;5.00;;
65597;SDS011;52267;51.984;20.956;2023-07-02T09:33:27;5.90;;;4.10;;
65597;SDS011;52267;51.984;20.956;2023-07-02T09:35:54;5.90;;;4.10;;
65597;SDS011;52267;51.984;20.956;2023-07-02T09:38:22;6.00;;;4.10;;
65597;SDS011;52267;51.984;20.956;2023-07-02T09:40:51;4.70;;;3.70;;
65597;SDS011;52267;51.984;20.956;2023-07-02T09:43:22;6.50;;;4.20;;
65597;SDS011;52267;51.984;20.956;2023-07-02T09:45:50;8.00;;;4.50;;
65597;SDS011;52267;51.984;20.956;2023-07-02T09:48:24;6.10;;;3.90;;
65597;SDS011;52267;51.984;20.956;2023-07-02T09:50:57;4.90;;;3.80;;
65597;SDS011;52267;51.984;20.956;2023-07-02T09:53:27;4.80;;;3.80;;
65597;SDS011;52267;51.984;20.956;2023-07-02T09:55:55;6.20;;;4.40;;
65597;SDS011;52267;51.984;20.956;2023-07-02T09:58:22;6.20;;;4.00;;
65597;SDS011;52267;51.984;20.956;2023-07-02T10:00:50;5.40;;;3.90;;
65597;SDS011;52267;51.984;20.956;2023-07-02T10:03:17;5.60;;;4.10;;
65597;SDS011;52267;51.984;20.956;2023-07-02T10:05:44;5.10;;;4.00;;
65597;SDS011;52267;51.984;20.956;2023-07-02T10:08:15;4.50;;;3.30;;
65597;SDS011;52267;51.984;20.956;2023-07-02T10:10:48;4.70;;;3.70;;
65597;SDS011;52267;51.984;20.956;2023-07-02T10:13:26;5.60;;;4.20;;
65597;SDS011;52267;51.984;20.956;2023-07-02T10:16:01;6.90;;;4.30;;
65597;SDS011;52267;51.984;20.956;2023-07-02T10:18:29;6.00;;;3.70;;
65597;SDS011;52267;51.984;20.956;2023-07-02T10:20:56;7.40;;;3.60;;
65597;SDS011;52267;51.984;20.956;2023-07-02T10:23:36;4.60;;;3.60;;
65597;SDS011;52267;51.984;20.956;2023-07-02T10:26:17;6.10;;;3.40;;
65597;SDS011;52267;51.984;20.956;2023-07-02T10:28:58;4.50;;;3.40;;
65597;SDS011;52267;51.984;20.956;2023-07-02T10:31:26;4.60;;;3.50;;
65597;SDS011;52267;51.984;20.956;2023-07-02T10:33:53;6.60;;;3.50;;
65597;SDS011;52267;51.984;20.956;2023-07-02T10:36:22;4.50;;;3.40;;
65597;SDS011;52267;51.984;20.956;2023-07-02T10:38:51;5.00;;;3.50;;
65597;SDS011;52267;51.984;20.956;2023-07-02T10:41:29;6.40;;;3.50;;
65597;SDS011;52267;51.984;20.956;2023-07-02T10:44:09;5.90;;;3.50;;
65597;SDS011;52267;51.984;20.956;2023-07-02T10:46:48;4.60;;;3.30;;
65597;SDS011;52267;51.984;20.956;2023-07-02T10:49:17;7.40;;;3.40;;
